Time,TemperatureF,DewpointF,PressureIn,WindDirection,WindDirectionDegrees,WindSpeedMPH,WindSpeedGustMPH,Humidity,HourlyPrecipIn,Conditions,Clouds,dailyrainin,SoftwareType,DateUTC
2013-09-05 00:02:00,48.6,38.8,29.41,SSE,158,3.5,3.5,69,0.00,RA,SCT,0.00,WeatherDisplay:10.37,2013-09-05 08:02:00,
2013-09-05 00:07:00,48.4,38.7,29.41,SSE,158,3.5,3.5,69,0.00,RA,SCT,0.00,WeatherDisplay:10.37,2013-09-05 08:07:00,
2013-09-05 00:12:00,48.2,38.5,29.41,SSE,158,4.6,4.6,69,0.00,CLR,SCT,0.00,WeatherDisplay:10.37,2013-09-05 08:12:00,
2013-09-05 00:17:00,48.4,38.7,29.41,SSE,158,4.6,4.6,69,0.00,CLR,SCT,0.00,WeatherDisplay:10.37,2013-09-05 08:17:00,
2013-09-05 00:22:00,48.4,37.9,29.41,SSE,158,3.5,3.5,67,0.00,CLR,SCT,0.00,WeatherDisplay:10.37,2013-09-05 08:22:00,
2013-09-05 00:27:00,48.2,37.8,29.41,SSE,158,0.0,0.0,67,0.00,CLR,SCT,0.00,WeatherDisplay:10.37,2013-09-05 08:27:00,
2013-09-05 00:32:00,48.2,37.8,29.44,SSE,158,0.0,0.0,67,0.00,CLR,SCT,0.00,WeatherDisplay:10.37,2013-09-05 08:32:00,
2013-09-05 00:38:00,48.2,37.4,29.44,SSE,158,0.0,0.0,66,0.00,CLR,SCT,0.00,WeatherDisplay:10.37,2013-09-05 08:38:00,
2013-09-05 00:43:00,48.4,37.2,29.44,SSE,158,0.0,0.0,65,0.00,CLR,SCT,0.00,WeatherDisplay:10.37,2013-09-05 08:43:00,
2013-09-05 00:48:00,48.2,36.6,29.44,SSE,158,2.3,0.0,64,0.00,CLR,SCT,0.00,WeatherDisplay:10.37,2013-09-05 08:48:00,
2013-09-05 00:53:00,48.6,36.5,29.44,SSE,158,0.0,0.0,63,0.00,CLR,SCT,0.00,WeatherDisplay:10.37,2013-09-05 08:53:00,
2013-09-05 00:58:00,48.6,36.5,29.44,SSE,158,0.0,0.0,63,0.00,CLR,SCT,0.00,WeatherDisplay:10.37,2013-09-05 08:58:00,
2013-09-05 01:03:00,48.7,36.7,29.44,SSE,158,3.5,0.0,63,0.00,CLR,SCT,0.00,WeatherDisplay:10.37,2013-09-05 09:03:00,
2013-09-05 01:08:00,48.4,37.2,29.44,SSE,158,3.5,0.0,65,0.00,CLR,SCT,0.00,WeatherDisplay:10.37,2013-09-05 09:08:00,
2013-09-05 01:13:00,48.0,37.2,29.44,SSE,158,2.3,2.3,66,0.00,CLR,SCT,0.00,WeatherDisplay:10.37,2013-09-05 09:13:00,
2013-09-05 01:18:00,47.7,36.9,29.44,SSE,158,0.0,0.0,66,0.00,CLR,SCT,0.00,WeatherDisplay:10.37,2013-09-05 09:18:00,
2013-09-05 01:23:00,47.5,37.1,29.44,SSE,158,3.6,3.6,67,0.00,CLR,SCT,0.00,WeatherDisplay:10.37,2013-09-05 09:23:00,
2013-09-05 01:28:00,47.3,37.3,29.44,SSE,158,3.6,3.6,68,0.00,CLR,SCT,0.00,WeatherDisplay:10.37,2013-09-05 09:28:00,
2013-09-05 01:33:00,47.1,37.1,29.44,SSE,158,3.6,3.6,68,0.00,CLR,SCT,0.00,WeatherDisplay:10.37,2013-09-05 09:33:00,
2013-09-05 01:38:00,47.5,37.8,29.44,SSE,158,3.6,0.0,69,0.00,CLR,SCT,0.00,WeatherDisplay:10.37,2013-09-05 09:38:00,
2013-09-05 01:43:00,46.9,38.0,29.44,SSE,158,4.6,4.6,71,0.00,CLR,SCT,0.00,WeatherDisplay:10.37,2013-09-05 09:43:00,
2013-09-05 01:48:00,47.1,38.9,29.44,SSE,158,4.6,4.6,73,0.00,CLR,SCT,0.00,WeatherDisplay:10.37,2013-09-05 09:48:00,
2013-09-05 01:53:00,46.9,39.4,29.44,SSE,158,4.6,4.6,75,0.00,CLR,SCT,0.00,WeatherDisplay:10.37,2013-09-05 09:53:00,
2013-09-05 01:58:00,46.9,39.4,29.44,SSE,158,4.6,4.6,75,0.00,CLR,SCT,0.00,WeatherDisplay:10.37,2013-09-05 09:58:00,
2013-09-05 02:03:00,47.1,39.9,29.44,SSE,158,5.8,5.8,76,0.00,CLR,SCT,0.00,WeatherDisplay:10.37,2013-09-05 10:03:00,
2013-09-05 02:08:00,46.9,39.8,29.44,SE,135,4.6,4.6,76,0.00,CLR,SCT,0.00,WeatherDisplay:10.37,2013-09-05 10:08:00,
2013-09-05 02:13:00,46.9,39.8,29.44,SE,135,4.6,4.6,76,0.00,CLR,SCT,0.00,WeatherDisplay:10.37,2013-09-05 10:13:00,
2013-09-05 02:18:00,47.1,39.9,29.44,SE,135,4.6,4.6,76,0.00,CLR,SCT,0.00,WeatherDisplay:10.37,2013-09-05 10:18:00,
2013-09-05 02:23:00,47.1,39.9,29.44,SE,135,3.5,3.5,76,0.00,CLR,SCT,0.00,WeatherDisplay:10.37,2013-09-05 10:23:00,
2013-09-05 02:28:00,47.1,39.9,29.44,SE,135,3.5,3.5,76,0.00,CLR,SCT,0.00,WeatherDisplay:10.37,2013-09-05 10:28:00,
2013-09-05 02:33:00,46.8,39.9,29.44,SE,135,3.5,3.5,77,0.00,CLR,SCT,0.00,WeatherDisplay:10.37,2013-09-05 10:33:00,
2013-09-05 02:38:00,46.6,39.8,29.44,SE,135,3.5,3.5,77,0.00,CLR,SCT,0.00,WeatherDisplay:10.37,2013-09-05 10:38:00,
2013-09-05 02:43:00,46.4,39.9,29.44,SE,135,2.3,0.0,78,0.00,CLR,SCT,0.00,WeatherDisplay:10.37,2013-09-05 10:43:00,
2013-09-05 02:48:00,46.6,40.1,29.44,SE,135,3.5,3.5,78,0.00,CLR,SCT,0.00,WeatherDisplay:10.37,2013-09-05 10:48:00,
2013-09-05 02:53:00,46.4,40.2,29.44,SE,135,3.5,3.5,79,0.00,CLR,SCT,0.00,WeatherDisplay:10.37,2013-09-05 10:53:00,
2013-09-05 02:58:00,46.6,40.7,29.44,SE,135,3.5,3.5,80,0.00,CLR,SCT,0.00,WeatherDisplay:10.37,2013-09-05 10:58:00,
2013-09-05 03:03:00,46.6,40.4,29.47,SE,135,2.3,0.0,79,0.00,CLR,SCT,0.00,WeatherDisplay:10.37,2013-09-05 11:03:00,
2013-09-05 03:08:00,46.8,40.6,29.47,SE,135,2.3,2.3,79,0.00,CLR,SCT,0.00,WeatherDisplay:10.37,2013-09-05 11:08:00,
2013-09-05 03:13:00,46.6,40.4,29.47,SE,135,2.3,0.0,79,0.00,CLR,SCT,0.00,WeatherDisplay:10.37,2013-09-05 11:13:00,
2013-09-05 03:18:00,46.4,40.6,29.47,SE,135,2.2,0.0,80,0.00,CLR,SCT,0.00,WeatherDisplay:10.37,2013-09-05 11:18:00,
2013-09-05 03:23:00,46.2,40.7,29.47,SE,135,0.0,0.0,81,0.00,CLR,SCT,0.00,WeatherDisplay:10.37,2013-09-05 11:23:00,
2013-09-05 03:28:00,45.7,40.2,29.47,SE,135,0.0,0.0,81,0.00,CLR,SCT,0.00,WeatherDisplay:10.37,2013-09-05 11:28:00,
2013-09-05 03:33:00,45.5,40.3,29.47,SE,135,0.0,0.0,82,0.00,CLR,SCT,0.00,WeatherDisplay:10.37,2013-09-05 11:33:00,
2013-09-05 03:38:00,45.1,40.3,29.47,SE,135,0.0,0.0,83,0.00,CLR,SCT,0.00,WeatherDisplay:10.37,2013-09-05 11:38:00,
2013-09-05 03:43:00,45.3,40.8,29.47,SE,135,0.0,0.0,84,0.00,CLR,SCT,0.00,WeatherDisplay:10.37,2013-09-05 11:43:00,
2013-09-05 03:48:00,45.3,41.1,29.47,SE,135,0.0,0.0,85,0.00,CLR,SCT,0.00,WeatherDisplay:10.37,2013-09-05 11:48:00,
2013-09-05 03:53:00,45.3,41.4,29.47,SE,135,0.0,0.0,86,0.00,CLR,SCT,0.00,WeatherDisplay:10.37,2013-09-05 11:53:00,
2013-09-05 03:58:00,45.5,41.6,29.47,SE,135,0.0,0.0,86,0.00,CLR,SCT,0.00,WeatherDisplay:10.37,2013-09-05 11:58:00,
2013-09-05 04:03:00,45.5,41.9,29.47,SE,135,0.0,0.0,87,0.00,CLR,SCT,0.00,WeatherDisplay:10.37,2013-09-05 12:03:00,
2013-09-05 04:08:00,45.1,41.5,29.47,SE,135,0.0,0.0,87,0.00,CLR,SCT,0.00,WeatherDisplay:10.37,2013-09-05 12:08:00,
2013-09-05 04:13:00,45.3,41.7,29.47,SE,135,0.0,0.0,87,0.00,CLR,SCT,0.00,WeatherDisplay:10.37,2013-09-05 12:13:00,
2013-09-05 04:18:00,45.3,41.7,29.47,SE,135,0.0,0.0,87,0.00,CLR,SCT,0.00,WeatherDisplay:10.37,2013-09-05 12:18:00,
2013-09-05 04:23:00,46.2,42.6,29.47,SE,135,0.0,0.0,87,0.00,CLR,SCT,0.00,WeatherDisplay:10.37,2013-09-05 12:23:00,
2013-09-05 04:28:00,45.7,42.0,29.47,SE,135,0.0,0.0,87,0.00,CLR,SCT,0.00,WeatherDisplay:10.37,2013-09-05 12:28:00,
2013-09-05 04:33:00,46.0,42.4,29.47,SE,135,0.0,0.0,87,0.00,CLR,SCT,0.00,WeatherDisplay:10.37,2013-09-05 12:33:00,
2013-09-05 04:38:00,46.2,42.9,29.47,SE,135,0.0,0.0,88,0.00,CLR,SCT,0.00,WeatherDisplay:10.37,2013-09-05 12:38:00,
2013-09-05 04:43:00,46.4,43.0,29.47,SE,135,0.0,0.0,88,0.00,CLR,SCT,0.00,WeatherDisplay:10.37,2013-09-05 12:43:00,
2013-09-05 04:48:00,46.2,42.9,29.47,SE,135,0.0,0.0,88,0.00,CLR,SCT,0.00,WeatherDisplay:10.37,2013-09-05 12:48:00,
2013-09-05 04:53:00,47.1,44.0,29.47,SE,135,0.0,0.0,89,0.00,CLR,SCT,0.00,WeatherDisplay:10.37,2013-09-05 12:53:00,
2013-09-05 04:58:00,47.5,44.7,29.47,SE,135,0.0,0.0,90,0.00,CLR,SCT,0.00,WeatherDisplay:10.37,2013-09-05 12:58:00,
2013-09-05 05:03:00,46.8,43.7,29.47,SE,135,0.0,0.0,89,0.00,CLR,SCT,0.00,WeatherDisplay:10.37,2013-09-05 13:03:00,
2013-09-05 05:08:00,46.8,43.4,29.47,SE,135,0.0,0.0,88,0.00,CLR,SCT,0.00,WeatherDisplay:10.37,2013-09-05 13:08:00,
2013-09-05 05:13:00,46.8,42.8,29.47,SE,135,0.0,0.0,86,0.00,CLR,SCT,0.00,WeatherDisplay:10.37,2013-09-05 13:13:00,
2013-09-05 05:18:00,46.9,43.0,29.47,SE,135,0.0,0.0,86,0.00,CLR,SCT,0.00,WeatherDisplay:10.37,2013-09-05 13:18:00,
2013-09-05 05:23:00,47.1,42.8,29.47,SE,135,0.0,0.0,85,0.00,CLR,SCT,0.00,WeatherDisplay:10.37,2013-09-05 13:23:00,
2013-09-05 05:28:00,46.9,42.0,29.47,SE,135,0.0,0.0,83,0.00,CLR,SCT,0.00,WeatherDisplay:10.37,2013-09-05 13:28:00,
2013-09-05 05:33:00,46.8,41.9,29.47,SE,135,0.0,0.0,83,0.00,CLR,SCT,0.00,WeatherDisplay:10.37,2013-09-05 13:33:00,
2013-09-05 05:38:00,46.8,41.6,29.47,SE,135,0.0,0.0,82,0.00,CLR,SCT,0.00,WeatherDisplay:10.37,2013-09-05 13:38:00,
2013-09-05 05:43:00,46.8,41.9,29.47,SE,135,0.0,0.0,83,0.00,CLR,SCT,0.00,WeatherDisplay:10.37,2013-09-05 13:43:00,
2013-09-05 05:48:00,46.8,41.6,29.47,SE,135,0.0,0.0,82,0.00,CLR,SCT,0.00,WeatherDisplay:10.37,2013-09-05 13:48:00,
2013-09-05 05:53:00,46.8,41.6,29.47,SE,135,0.0,0.0,82,0.00,CLR,SCT,0.00,WeatherDisplay:10.37,2013-09-05 13:53:00,
2013-09-05 05:58:00,46.6,41.4,29.47,SE,135,0.0,0.0,82,0.00,CLR,SCT,0.00,WeatherDisplay:10.37,2013-09-05 13:58:00,
2013-09-05 06:03:00,46.6,41.4,29.47,SE,135,0.0,0.0,82,0.00,CLR,SCT,0.00,WeatherDisplay:10.37,2013-09-05 14:03:00,
2013-09-05 06:08:00,46.4,41.2,29.47,SE,135,0.0,0.0,82,0.00,CLR,SCT,0.00,WeatherDisplay:10.37,2013-09-05 14:08:00,
2013-09-05 06:13:00,46.6,41.7,29.47,SE,135,0.0,0.0,83,0.00,CLR,SCT,0.00,WeatherDisplay:10.37,2013-09-05 14:13:00,
2013-09-05 06:18:00,46.6,41.7,29.47,SE,135,0.0,0.0,83,0.00,CLR,SCT,0.00,WeatherDisplay:10.37,2013-09-05 14:18:00,
2013-09-05 06:23:00,46.4,41.5,29.47,SE,135,0.0,0.0,83,0.00,CLR,SCT,0.00,WeatherDisplay:10.37,2013-09-05 14:23:00,
2013-09-05 06:28:00,46.2,41.7,29.47,SE,135,0.0,0.0,84,0.00,CLR,SCT,0.00,WeatherDisplay:10.37,2013-09-05 14:28:00,
2013-09-05 06:33:00,45.9,41.3,29.50,SE,135,0.0,0.0,84,0.00,CLR,SCT,0.00,WeatherDisplay:10.37,2013-09-05 14:33:00,
2013-09-05 06:39:00,46.0,41.8,29.50,SE,135,0.0,0.0,85,0.00,CLR,SCT,0.00,WeatherDisplay:10.37,2013-09-05 14:39:00,
2013-09-05 06:44:00,46.2,42.0,29.50,SE,135,0.0,0.0,85,0.00,CLR,SCT,0.00,WeatherDisplay:10.37,2013-09-05 14:44:00,
2013-09-05 06:49:00,46.4,42.1,29.47,SE,135,0.0,0.0,85,0.00,CLR,SCT,0.00,WeatherDisplay:10.37,2013-09-05 14:49:00,
2013-09-05 06:54:00,46.4,41.8,29.47,SE,135,0.0,0.0,84,0.00,CLR,SCT,0.00,WeatherDisplay:10.37,2013-09-05 14:54:00,
2013-09-05 06:59:00,46.4,41.8,29.47,SE,135,0.0,0.0,84,0.00,CLR,SCT,0.00,WeatherDisplay:10.37,2013-09-05 14:59:00,
2013-09-05 07:04:00,46.6,41.7,29.47,SE,135,0.0,0.0,83,0.00,CLR,SCT,0.00,WeatherDisplay:10.37,2013-09-05 15:04:00,
2013-09-05 07:09:00,46.4,41.5,29.47,SE,135,0.0,0.0,83,0.00,CLR,SCT,0.00,WeatherDisplay:10.37,2013-09-05 15:09:00,
2013-09-05 07:14:00,46.6,42.0,29.47,SE,135,0.0,0.0,84,0.00,CLR,SCT,0.00,WeatherDisplay:10.37,2013-09-05 15:14:00,
2013-09-05 07:19:00,46.6,42.0,29.50,SE,135,0.0,0.0,84,0.00,CLR,SCT,0.00,WeatherDisplay:10.37,2013-09-05 15:19:00,
2013-09-05 07:24:00,46.8,42.2,29.50,SE,135,0.0,0.0,84,0.00,CLR,SCT,0.00,WeatherDisplay:10.37,2013-09-05 15:24:00,
2013-09-05 07:29:00,46.8,42.5,29.50,SE,135,0.0,0.0,85,0.00,CLR,SCT,0.00,WeatherDisplay:10.37,2013-09-05 15:29:00,
2013-09-05 07:34:00,47.7,44.0,29.50,SE,135,0.0,0.0,87,0.00,CLR,SCT,0.00,WeatherDisplay:10.37,2013-09-05 15:34:00,
2013-09-05 07:39:00,47.3,43.9,29.50,SE,135,0.0,0.0,88,0.00,CLR,SCT,0.00,WeatherDisplay:10.37,2013-09-05 15:39:00,
2013-09-05 07:44:00,46.9,43.6,29.50,SE,135,0.0,0.0,88,0.00,CLR,SCT,0.00,WeatherDisplay:10.37,2013-09-05 15:44:00,
2013-09-05 07:49:00,46.6,42.9,29.50,SE,135,3.5,0.0,87,0.00,CLR,SCT,0.00,WeatherDisplay:10.37,2013-09-05 15:49:00,
2013-09-05 07:54:00,46.8,43.1,29.50,SE,135,2.3,0.0,87,0.00,CLR,SCT,0.00,WeatherDisplay:10.37,2013-09-05 15:54:00,
2013-09-05 07:59:00,46.9,43.0,29.50,SE,135,0.0,0.0,86,0.00,CLR,SCT,0.00,WeatherDisplay:10.37,2013-09-05 15:59:00,
2013-09-05 08:04:00,46.9,42.7,29.50,SE,135,0.0,0.0,85,0.00,CLR,SCT,0.00,WeatherDisplay:10.37,2013-09-05 16:04:00,
2013-09-05 08:09:00,46.9,42.7,29.50,SE,135,2.3,0.0,85,0.00,CLR,SCT,0.00,WeatherDisplay:10.37,2013-09-05 16:09:00,
2013-09-05 08:14:00,46.9,42.7,29.50,SE,135,0.0,0.0,85,0.00,CLR,SCT,0.00,WeatherDisplay:10.37,2013-09-05 16:14:00,
2013-09-05 08:19:00,46.8,42.5,29.50,SE,135,0.0,0.0,85,0.00,CLR,SCT,0.00,WeatherDisplay:10.37,2013-09-05 16:19:00,
2013-09-05 08:24:00,46.8,42.8,29.50,SE,135,0.0,0.0,86,0.00,CLR,SCT,0.00,WeatherDisplay:10.37,2013-09-05 16:24:00,
2013-09-05 08:29:00,46.8,42.8,29.50,SE,135,0.0,0.0,86,0.00,CLR,SCT,0.00,WeatherDisplay:10.37,2013-09-05 16:29:00,
2013-09-05 08:34:00,46.9,43.0,29.50,SE,135,0.0,0.0,86,0.00,CLR,SCT,0.00,WeatherDisplay:10.37,2013-09-05 16:34:00,
2013-09-05 08:39:00,47.1,42.8,29.50,SE,135,0.0,0.0,85,0.00,CLR,SCT,0.00,WeatherDisplay:10.37,2013-09-05 16:39:00,
2013-09-05 08:44:00,47.3,42.7,29.50,SE,135,0.0,0.0,84,0.00,CLR,SCT,0.00,WeatherDisplay:10.37,2013-09-05 16:44:00,
2013-09-05 08:49:00,47.5,42.6,29.53,SE,135,0.0,0.0,83,0.00,CLR,SCT,0.00,WeatherDisplay:10.37,2013-09-05 16:49:00,
2013-09-05 08:54:00,47.7,42.4,29.53,SE,135,0.0,0.0,82,0.00,CLR,SCT,0.00,WeatherDisplay:10.37,2013-09-05 16:54:00,
2013-09-05 08:59:00,47.7,42.4,29.53,SE,135,0.0,0.0,82,0.00,CLR,SCT,0.00,WeatherDisplay:10.37,2013-09-05 16:59:00,
2013-09-05 09:04:00,47.8,42.6,29.53,SE,135,0.0,0.0,82,0.00,CLR,SCT,0.00,WeatherDisplay:10.37,2013-09-05 17:04:00,
2013-09-05 09:09:00,48.0,43.1,29.53,SE,135,0.0,0.0,83,0.00,CLR,SCT,0.00,WeatherDisplay:10.37,2013-09-05 17:09:00,
2013-09-05 09:14:00,48.2,43.6,29.53,SE,135,0.0,0.0,84,0.00,CLR,SCT,0.00,WeatherDisplay:10.37,2013-09-05 17:14:00,
2013-09-05 09:19:00,48.2,43.9,29.53,SE,135,0.0,0.0,85,0.00,CLR,SCT,0.00,WeatherDisplay:10.37,2013-09-05 17:19:00,
2013-09-05 09:24:00,48.4,43.5,29.53,SE,135,0.0,0.0,83,0.00,CLR,SCT,0.00,WeatherDisplay:10.37,2013-09-05 17:24:00,
2013-09-05 09:29:00,48.6,43.3,29.53,SE,135,2.3,0.0,82,0.00,CLR,SCT,0.00,WeatherDisplay:10.37,2013-09-05 17:29:00,
2013-09-05 09:34:00,48.7,42.8,29.53,SE,135,3.6,3.6,80,0.00,CLR,SCT,0.00,WeatherDisplay:10.37,2013-09-05 17:34:00,
2013-09-05 09:39:00,48.7,42.2,29.53,SE,135,3.5,3.5,78,0.00,CLR,SCT,0.00,WeatherDisplay:10.37,2013-09-05 17:39:00,
2013-09-05 09:44:00,48.9,42.0,29.53,SE,135,4.0,4.0,77,0.00,CLR,SCT,0.00,WeatherDisplay:10.37,2013-09-05 17:44:00,
2013-09-05 09:49:00,49.1,41.9,29.53,SE,135,4.6,4.6,76,0.00,CLR,SCT,0.00,WeatherDisplay:10.37,2013-09-05 17:49:00,
2013-09-05 09:54:00,48.9,42.0,29.53,SE,135,4.6,4.6,77,0.00,CLR,SCT,0.00,WeatherDisplay:10.37,2013-09-05 17:54:00,
2013-09-05 09:59:00,48.9,42.4,29.53,SE,135,4.6,4.6,78,0.00,CLR,SCT,0.00,WeatherDisplay:10.37,2013-09-05 17:59:00,
2013-09-05 10:04:00,49.1,42.2,29.53,SE,135,3.6,3.6,77,0.00,CLR,SCT,0.00,WeatherDisplay:10.37,2013-09-05 18:04:00,
2013-09-05 10:09:00,49.3,42.0,29.53,SE,135,4.6,4.6,76,0.00,CLR,SCT,0.00,WeatherDisplay:10.37,2013-09-05 18:09:00,
2013-09-05 10:14:00,49.5,42.2,29.53,SE,135,5.4,5.4,76,0.00,CLR,SCT,0.00,WeatherDisplay:10.37,2013-09-05 18:14:00,
2013-09-05 10:19:00,49.5,42.2,29.53,SSE,158,5.8,5.8,76,0.00,CLR,SCT,0.00,WeatherDisplay:10.37,2013-09-05 18:19:00,
2013-09-05 10:24:00,49.6,42.4,29.53,SE,135,5.8,5.8,76,0.00,CLR,SCT,0.00,WeatherDisplay:10.37,2013-09-05 18:24:00,
2013-09-05 10:29:00,49.6,42.7,29.56,SE,135,3.5,3.5,77,0.00,CLR,SCT,0.00,WeatherDisplay:10.37,2013-09-05 18:29:00,
2013-09-05 10:34:00,49.8,42.9,29.56,SE,135,4.9,4.9,77,0.00,CLR,SCT,0.00,WeatherDisplay:10.37,2013-09-05 18:34:00,
2013-09-05 10:39:00,49.8,42.9,29.56,SE,135,2.6,2.6,77,0.00,CLR,SCT,0.00,WeatherDisplay:10.37,2013-09-05 18:39:00,
2013-09-05 10:44:00,50.0,43.4,29.56,SE,135,4.9,4.9,78,0.00,CLR,SCT,0.00,WeatherDisplay:10.37,2013-09-05 18:44:00,
2013-09-05 10:49:00,50.2,43.6,29.56,SSE,158,4.0,4.0,78,0.00,CLR,SCT,0.00,WeatherDisplay:10.37,2013-09-05 18:49:00,
2013-09-05 10:54:00,50.4,43.8,29.56,SE,135,4.6,4.6,78,0.00,CLR,SCT,0.00,WeatherDisplay:10.37,2013-09-05 18:54:00,
2013-09-05 10:59:00,50.5,43.9,29.56,SE,135,2.3,2.6,78,0.00,CLR,SCT,0.00,WeatherDisplay:10.37,2013-09-05 18:59:00,
2013-09-05 11:04:00,50.9,43.9,29.56,SE,135,3.5,3.5,77,0.00,CLR,SCT,0.00,WeatherDisplay:10.37,2013-09-05 19:04:00,
2013-09-05 11:09:00,51.1,43.4,29.56,SE,135,3.5,3.5,75,0.00,CLR,SCT,0.00,WeatherDisplay:10.37,2013-09-05 19:09:00,
2013-09-05 11:14:00,51.3,44.0,29.56,SE,135,3.5,3.5,76,0.00,CLR,SCT,0.00,WeatherDisplay:10.37,2013-09-05 19:14:00,
2013-09-05 11:19:00,51.4,43.8,29.56,SSE,158,2.3,0.0,75,0.00,CLR,SCT,0.00,WeatherDisplay:10.37,2013-09-05 19:19:00,
2013-09-05 11:24:00,51.6,43.6,29.56,SSE,158,3.6,3.6,74,0.00,CLR,SCT,0.00,WeatherDisplay:10.37,2013-09-05 19:24:00,
2013-09-05 11:29:00,51.8,44.1,29.56,SSE,158,2.3,0.0,75,0.00,CLR,SCT,0.00,WeatherDisplay:10.37,2013-09-05 19:29:00,
2013-09-05 11:34:00,52.0,44.3,29.56,SSE,158,3.5,0.0,75,0.00,CLR,SCT,0.00,WeatherDisplay:10.37,2013-09-05 19:34:00,
2013-09-05 11:39:00,52.2,44.5,29.56,SSE,158,3.5,3.5,75,0.00,CLR,SCT,0.00,WeatherDisplay:10.37,2013-09-05 19:39:00,
2013-09-05 11:44:00,52.3,43.9,29.56,SE,135,4.6,4.6,73,0.00,CLR,SCT,0.00,WeatherDisplay:10.37,2013-09-05 19:44:00,
2013-09-05 11:49:00,52.3,43.9,29.56,SE,135,4.6,4.6,73,0.00,CLR,SCT,0.00,WeatherDisplay:10.37,2013-09-05 19:49:00,
2013-09-05 11:54:00,52.5,44.1,29.56,SE,135,3.6,3.6,73,0.00,CLR,SCT,0.00,WeatherDisplay:10.37,2013-09-05 19:54:00,
2013-09-05 11:59:00,52.7,44.3,29.56,SE,135,3.5,3.5,73,0.00,CLR,SCT,0.00,WeatherDisplay:10.37,2013-09-05 19:59:00,
2013-09-05 12:04:00,52.9,44.1,29.56,SE,135,4.6,4.6,72,0.00,CLR,SCT,0.00,WeatherDisplay:10.37,2013-09-05 20:04:00,
2013-09-05 12:09:00,53.1,43.5,29.56,SE,135,5.8,5.8,70,0.00,CLR,SCT,0.00,WeatherDisplay:10.37,2013-09-05 20:09:00,
2013-09-05 12:14:00,53.2,44.1,29.56,SE,135,3.5,3.5,71,0.00,CLR,SCT,0.00,WeatherDisplay:10.37,2013-09-05 20:14:00,
2013-09-05 12:19:00,53.4,44.2,29.56,SE,135,3.5,3.5,71,0.00,CLR,SCT,0.00,WeatherDisplay:10.37,2013-09-05 20:19:00,
2013-09-05 12:24:00,53.6,43.7,29.56,SE,135,3.6,3.6,69,0.00,CLR,SCT,0.00,WeatherDisplay:10.37,2013-09-05 20:24:00,
2013-09-05 12:29:00,53.8,43.8,29.56,SE,135,3.5,3.5,69,0.00,CLR,SCT,0.00,WeatherDisplay:10.37,2013-09-05 20:29:00,
2013-09-05 12:34:00,54.1,44.2,29.56,SE,135,3.6,3.6,69,0.00,CLR,SCT,0.00,WeatherDisplay:10.37,2013-09-05 20:34:00,
2013-09-05 12:40:00,54.5,43.4,29.56,SSE,158,5.8,5.8,66,0.00,CLR,SCT,0.00,WeatherDisplay:10.37,2013-09-05 20:40:00,
2013-09-05 12:45:00,55.0,43.9,29.56,SSE,158,5.4,5.4,66,0.00,CLR,SCT,0.00,WeatherDisplay:10.37,2013-09-05 20:45:00,
2013-09-05 12:50:00,55.4,43.8,29.56,SE,135,4.6,4.6,65,0.00,CLR,SCT,0.00,WeatherDisplay:10.37,2013-09-05 20:50:00,
2013-09-05 12:55:00,55.9,43.1,29.56,SE,135,4.6,4.6,62,0.00,CLR,SCT,0.00,WeatherDisplay:10.37,2013-09-05 20:55:00,
2013-09-05 13:00:00,56.3,41.3,29.56,ESE,112,8.1,8.1,57,0.00,CLR,SCT,0.00,WeatherDisplay:10.37,2013-09-05 21:00:00,
2013-09-05 13:05:00,56.5,41.4,29.56,SSW,202,7.6,7.6,57,0.00,CLR,SCT,0.00,WeatherDisplay:10.37,2013-09-05 21:05:00,
2013-09-05 13:10:00,57.0,40.5,29.56,ESE,112,8.3,8.3,54,0.00,CLR,SCT,0.00,WeatherDisplay:10.37,2013-09-05 21:10:00,
2013-09-05 13:15:00,57.4,39.4,29.59,SE,135,9.2,9.2,51,0.00,CLR,SCT,0.00,WeatherDisplay:10.37,2013-09-05 21:15:00,
2013-09-05 13:20:00,57.6,39.0,29.59,SE,135,5.9,5.9,50,0.00,CLR,SCT,0.00,WeatherDisplay:10.37,2013-09-05 21:20:00,
2013-09-05 13:25:00,58.6,40.6,29.59,ESE,112,4.6,4.6,51,0.00,CLR,SCT,0.00,WeatherDisplay:10.37,2013-09-05 21:25:00,
2013-09-05 13:30:00,59.2,38.9,29.59,SE,135,9.2,9.2,47,0.00,CLR,SCT,0.00,WeatherDisplay:10.37,2013-09-05 21:30:00,
2013-09-05 13:35:00,59.2,38.4,29.59,SE,135,10.4,10.4,46,0.00,CLR,SCT,0.00,WeatherDisplay:10.37,2013-09-05 21:35:00,
2013-09-05 13:40:00,58.8,38.1,29.59,SE,135,9.2,9.2,46,0.00,CLR,SCT,0.00,WeatherDisplay:10.37,2013-09-05 21:40:00,
2013-09-05 13:45:00,58.6,39.0,29.59,SSE,158,5.9,5.9,48,0.00,CLR,SCT,0.00,WeatherDisplay:10.37,2013-09-05 21:45:00,
2013-09-05 13:50:00,58.5,38.3,29.59,SE,135,8.3,8.3,47,0.00,CLR,SCT,0.00,WeatherDisplay:10.37,2013-09-05 21:50:00,
2013-09-05 13:55:00,58.5,37.7,29.59,SE,135,9.2,9.2,46,0.00,CLR,SCT,0.00,WeatherDisplay:10.37,2013-09-05 21:55:00,
2013-09-05 14:00:00,58.6,38.5,29.59,SSE,158,8.1,8.1,47,0.00,CLR,SCT,0.00,WeatherDisplay:10.37,2013-09-05 22:00:00,
2013-09-05 14:05:00,58.6,37.9,29.59,South,180,10.4,10.4,46,0.00,CLR,SCT,0.00,WeatherDisplay:10.37,2013-09-05 22:05:00,
2013-09-05 14:10:00,59.0,38.2,29.59,ESE,112,8.1,8.1,46,0.00,CLR,SCT,0.00,WeatherDisplay:10.37,2013-09-05 22:10:00,
2013-09-05 14:15:00,59.2,37.3,29.59,SW,225,5.8,5.8,44,0.00,CLR,SCT,0.00,WeatherDisplay:10.37,2013-09-05 22:15:00,
2013-09-05 14:20:00,59.5,40.3,29.59,WNW,292,4.6,0.0,49,0.00,CLR,SCT,0.00,WeatherDisplay:10.37,2013-09-05 22:20:00,
2013-09-05 14:25:00,58.6,41.5,29.59,NW,315,8.1,8.1,53,0.00,CLR,SCT,0.00,WeatherDisplay:10.37,2013-09-05 22:25:00,
2013-09-05 14:30:00,58.8,42.7,29.59,NW,315,4.9,4.9,55,0.00,CLR,SCT,0.00,WeatherDisplay:10.37,2013-09-05 22:30:00,
2013-09-05 14:35:00,57.4,41.3,29.59,NW,315,8.1,8.1,55,0.00,CLR,SCT,0.00,WeatherDisplay:10.37,2013-09-05 22:35:00,
2013-09-05 14:40:00,57.0,42.8,29.59,NW,315,8.1,8.1,59,0.00,CLR,SCT,0.00,WeatherDisplay:10.37,2013-09-05 22:40:00,
2013-09-05 14:45:00,56.7,42.9,29.59,WNW,292,8.1,8.1,60,0.00,CLR,SCT,0.00,WeatherDisplay:10.37,2013-09-05 22:45:00,
2013-09-05 14:50:00,56.3,43.0,29.59,NW,315,4.9,4.9,61,0.00,CLR,SCT,0.00,WeatherDisplay:10.37,2013-09-05 22:50:00,
2013-09-05 14:55:00,56.3,43.4,29.59,NW,315,3.5,3.6,62,0.00,CLR,SCT,0.00,WeatherDisplay:10.37,2013-09-05 22:55:00,
2013-09-05 15:00:00,56.5,44.0,29.59,NW,315,4.6,4.6,63,0.00,CLR,SCT,0.00,WeatherDisplay:10.37,2013-09-05 23:00:00,
2013-09-05 15:05:00,56.5,44.0,29.59,NW,315,3.5,3.5,63,0.00,CLR,SCT,0.00,WeatherDisplay:10.37,2013-09-05 23:05:00,
2013-09-05 15:10:00,56.7,43.8,29.59,NW,315,4.6,4.6,62,0.00,CLR,SCT,0.00,WeatherDisplay:10.37,2013-09-05 23:10:00,
2013-09-05 15:15:00,56.7,44.2,29.62,NW,315,4.6,4.6,63,0.00,CLR,SCT,0.00,WeatherDisplay:10.37,2013-09-05 23:15:00,
2013-09-05 15:20:00,56.8,44.4,29.62,NW,315,4.6,4.6,63,0.00,CLR,SCT,0.00,WeatherDisplay:10.37,2013-09-05 23:20:00,
2013-09-05 15:25:00,56.8,44.8,29.62,NW,315,3.5,3.5,64,0.00,CLR,SCT,0.00,WeatherDisplay:10.37,2013-09-05 23:25:00,
2013-09-05 15:30:00,56.7,44.6,29.59,NW,315,3.5,3.5,64,0.00,CLR,SCT,0.00,WeatherDisplay:10.37,2013-09-05 23:30:00,
2013-09-05 15:35:00,56.5,44.9,29.59,NW,315,3.5,3.5,65,0.00,CLR,SCT,0.00,WeatherDisplay:10.37,2013-09-05 23:35:00,
2013-09-05 15:40:00,56.1,44.5,29.59,NW,315,4.6,4.6,65,0.00,CLR,SCT,0.00,WeatherDisplay:10.37,2013-09-05 23:40:00,
2013-09-05 15:45:00,55.9,44.7,29.59,NW,315,3.5,0.0,66,0.00,CLR,SCT,0.00,WeatherDisplay:10.37,2013-09-05 23:45:00,
2013-09-05 15:50:00,56.1,45.3,29.59,NW,315,3.5,0.0,67,0.00,CLR,SCT,0.00,WeatherDisplay:10.37,2013-09-05 23:50:00,
2013-09-05 15:55:00,55.9,45.1,29.59,NW,315,4.6,4.6,67,0.00,CLR,SCT,0.00,WeatherDisplay:10.37,2013-09-05 23:55:00,
2013-09-05 16:00:00,56.1,45.7,29.59,NW,315,2.3,0.0,68,0.00,CLR,SCT,0.00,WeatherDisplay:10.37,2013-09-06 00:00:00,
2013-09-05 16:05:00,55.9,45.5,29.59,NW,315,3.6,3.6,68,0.00,CLR,SCT,0.00,WeatherDisplay:10.37,2013-09-06 00:05:00,
2013-09-05 16:10:00,55.9,45.5,29.59,NW,315,3.5,3.5,68,0.00,CLR,SCT,0.00,WeatherDisplay:10.37,2013-09-06 00:10:00,
2013-09-05 16:15:00,55.6,45.2,29.59,NW,315,3.5,0.0,68,0.00,CLR,SCT,0.00,WeatherDisplay:10.37,2013-09-06 00:15:00,
2013-09-05 16:20:00,55.4,45.0,29.59,NW,315,3.5,3.5,68,0.00,CLR,SCT,0.00,WeatherDisplay:10.37,2013-09-06 00:20:00,
2013-09-05 16:25:00,55.4,45.0,29.59,NW,315,4.6,4.6,68,0.00,CLR,SCT,0.00,WeatherDisplay:10.37,2013-09-06 00:25:00,
2013-09-05 16:30:00,55.4,45.0,29.59,NW,315,3.5,3.6,68,0.00,CLR,SCT,0.00,WeatherDisplay:10.37,2013-09-06 00:30:00,
2013-09-05 16:35:00,55.2,44.1,29.59,NW,315,4.6,4.6,66,0.00,CLR,SCT,0.00,WeatherDisplay:10.37,2013-09-06 00:35:00,
2013-09-05 16:40:00,55.2,44.4,29.59,NW,315,4.6,4.6,67,0.00,CLR,SCT,0.00,WeatherDisplay:10.37,2013-09-06 00:40:00,
2013-09-05 16:45:00,55.2,44.8,29.59,NW,315,4.6,4.6,68,0.00,CLR,SCT,0.00,WeatherDisplay:10.37,2013-09-06 00:45:00,
2013-09-05 16:50:00,55.2,44.8,29.59,NW,315,2.3,0.0,68,0.00,CLR,SCT,0.00,WeatherDisplay:10.37,2013-09-06 00:50:00,
2013-09-05 16:55:00,55.4,45.0,29.59,NW,315,2.6,0.0,68,0.00,CLR,SCT,0.00,WeatherDisplay:10.37,2013-09-06 00:55:00,
2013-09-05 17:00:00,55.4,45.0,29.62,NW,315,2.3,0.0,68,0.00,CLR,SCT,0.00,WeatherDisplay:10.37,2013-09-06 01:00:00,
2013-09-05 17:05:00,55.2,44.8,29.62,NNW,338,5.8,5.8,68,0.00,CLR,SCT,0.00,WeatherDisplay:10.37,2013-09-06 01:05:00,
2013-09-05 17:10:00,55.0,44.7,29.62,NNW,338,2.3,0.0,68,0.00,CLR,SCT,0.00,WeatherDisplay:10.37,2013-09-06 01:10:00,
2013-09-05 17:15:00,55.0,45.4,29.62,NNW,338,0.0,0.0,70,0.00,CLR,SCT,0.00,WeatherDisplay:10.37,2013-09-06 01:15:00,
2013-09-05 17:20:00,54.7,45.8,29.62,NNW,338,2.3,0.0,72,0.00,CLR,SCT,0.00,WeatherDisplay:10.37,2013-09-06 01:20:00,
2013-09-05 17:25:00,54.7,45.8,29.62,NNW,338,0.0,0.0,72,0.00,CLR,SCT,0.00,WeatherDisplay:10.37,2013-09-06 01:25:00,
2013-09-05 17:30:00,54.5,46.0,29.62,NNW,338,0.0,0.0,73,0.00,CLR,SCT,0.00,WeatherDisplay:10.37,2013-09-06 01:30:00,
2013-09-05 17:35:00,54.7,46.6,29.62,NNW,338,0.0,0.0,74,0.00,CLR,SCT,0.00,WeatherDisplay:10.37,2013-09-06 01:35:00,
2013-09-05 17:40:00,54.7,46.6,29.62,NNW,338,0.0,0.0,74,0.00,CLR,SCT,0.00,WeatherDisplay:10.37,2013-09-06 01:40:00,
2013-09-05 17:45:00,54.9,47.1,29.62,NNW,338,0.0,0.0,75,0.00,CLR,SCT,0.00,WeatherDisplay:10.37,2013-09-06 01:45:00,
2013-09-05 17:50:00,54.7,46.6,29.62,NNW,338,0.0,0.0,74,0.00,CLR,SCT,0.00,WeatherDisplay:10.37,2013-09-06 01:50:00,
2013-09-05 17:55:00,54.7,46.2,29.62,NNW,338,0.0,0.0,73,0.00,CLR,SCT,0.00,WeatherDisplay:10.37,2013-09-06 01:55:00,
2013-09-05 18:00:00,54.7,46.2,29.62,NNW,338,0.0,0.0,73,0.00,CLR,SCT,0.00,WeatherDisplay:10.37,2013-09-06 02:00:00,
2013-09-05 18:05:00,54.7,46.2,29.62,NNW,338,0.0,0.0,73,0.00,CLR,SCT,0.00,WeatherDisplay:10.37,2013-09-06 02:05:00,
2013-09-05 18:10:00,54.9,46.7,29.62,NNW,338,0.0,0.0,74,0.00,CLR,SCT,0.00,WeatherDisplay:10.37,2013-09-06 02:10:00,
2013-09-05 18:15:00,54.9,46.4,29.62,NNW,338,0.0,0.0,73,0.00,CLR,SCT,0.00,WeatherDisplay:10.37,2013-09-06 02:15:00,
2013-09-05 18:20:00,54.7,45.8,29.62,NNW,338,0.0,0.0,72,0.00,CLR,SCT,0.00,WeatherDisplay:10.37,2013-09-06 02:20:00,
2013-09-05 18:25:00,54.5,45.7,29.62,NNW,338,0.0,0.0,72,0.00,CLR,SCT,0.00,WeatherDisplay:10.37,2013-09-06 02:25:00,
2013-09-05 18:30:00,54.5,45.7,29.62,NNW,338,0.0,0.0,72,0.00,CLR,SCT,0.00,WeatherDisplay:10.37,2013-09-06 02:30:00,
2013-09-05 18:35:00,54.5,45.7,29.62,NNW,338,0.0,0.0,72,0.00,CLR,SCT,0.00,WeatherDisplay:10.37,2013-09-06 02:35:00,
2013-09-05 18:40:00,54.5,46.0,29.62,NNW,338,0.0,0.0,73,0.00,CLR,SCT,0.00,WeatherDisplay:10.37,2013-09-06 02:40:00,
2013-09-05 18:45:00,54.5,45.7,29.62,NNW,338,0.0,0.0,72,0.00,CLR,SCT,0.00,WeatherDisplay:10.37,2013-09-06 02:45:00,
2013-09-05 18:50:00,54.7,45.8,29.62,NNW,338,0.0,0.0,72,0.00,CLR,SCT,0.00,WeatherDisplay:10.37,2013-09-06 02:50:00,
2013-09-05 18:55:00,54.7,45.8,29.62,NNW,338,0.0,0.0,72,0.00,CLR,SCT,0.00,WeatherDisplay:10.37,2013-09-06 02:55:00,
2013-09-05 19:00:00,54.5,45.7,29.59,NNW,338,0.0,0.0,72,0.00,CLR,SCT,0.00,WeatherDisplay:10.37,2013-09-06 03:00:00,
2013-09-05 19:05:00,54.1,45.7,29.59,NNW,338,0.0,0.0,73,0.00,CLR,SCT,0.00,WeatherDisplay:10.37,2013-09-06 03:05:00,
2013-09-05 19:10:00,53.8,45.3,29.59,NNW,338,0.0,0.0,73,0.00,CLR,SCT,0.00,WeatherDisplay:10.37,2013-09-06 03:10:00,
2013-09-05 19:16:00,53.6,45.2,29.62,NNW,338,0.0,0.0,73,0.00,CLR,SCT,0.00,WeatherDisplay:10.37,2013-09-06 03:16:00,
2013-09-05 19:21:00,53.4,45.3,29.62,NNW,338,0.0,0.0,74,0.00,CLR,SCT,0.00,WeatherDisplay:10.37,2013-09-06 03:21:00,
2013-09-05 19:26:00,53.4,46.0,29.62,NNW,338,0.0,0.0,76,0.00,CLR,SCT,0.00,WeatherDisplay:10.37,2013-09-06 03:26:00,
2013-09-05 19:31:00,53.6,46.6,29.62,NNW,338,0.0,0.0,77,0.00,CLR,SCT,0.00,WeatherDisplay:10.37,2013-09-06 03:31:00,
2013-09-05 19:36:00,53.6,46.9,29.62,NNW,338,0.0,0.0,78,0.00,CLR,SCT,0.00,WeatherDisplay:10.37,2013-09-06 03:36:00,
2013-09-05 19:41:00,53.6,46.9,29.62,NNW,338,0.0,0.0,78,0.00,CLR,SCT,0.00,WeatherDisplay:10.37,2013-09-06 03:41:00,
2013-09-05 19:46:00,53.8,46.7,29.62,NNW,338,0.0,0.0,77,0.00,CLR,SCT,0.00,WeatherDisplay:10.37,2013-09-06 03:46:00,
2013-09-05 19:51:00,53.6,46.2,29.62,NNW,338,0.0,0.0,76,0.00,CLR,SCT,0.00,WeatherDisplay:10.37,2013-09-06 03:51:00,
2013-09-05 19:56:00,53.6,46.2,29.62,NNW,338,0.0,0.0,76,0.00,CLR,SCT,0.00,WeatherDisplay:10.37,2013-09-06 03:56:00,
2013-09-05 20:01:00,53.6,46.2,29.62,NNW,338,0.0,0.0,76,0.00,CLR,SCT,0.00,WeatherDisplay:10.37,2013-09-06 04:01:00,
2013-09-05 20:06:00,53.4,46.0,29.62,NNW,338,0.0,0.0,76,0.00,CLR,SCT,0.00,WeatherDisplay:10.37,2013-09-06 04:06:00,
2013-09-05 20:11:00,53.4,46.4,29.62,NNW,338,0.0,0.0,77,0.00,CLR,SCT,0.00,WeatherDisplay:10.37,2013-09-06 04:11:00,
2013-09-05 20:16:00,53.2,46.6,29.62,NNW,338,0.0,0.0,78,0.00,CLR,SCT,0.00,WeatherDisplay:10.37,2013-09-06 04:16:00,
2013-09-05 20:21:00,53.1,47.1,29.62,NNW,338,0.0,0.0,80,0.00,CLR,SCT,0.00,WeatherDisplay:10.37,2013-09-06 04:21:00,
2013-09-05 20:26:00,52.9,46.9,29.62,NNW,338,0.0,0.0,80,0.00,CLR,SCT,0.00,WeatherDisplay:10.37,2013-09-06 04:26:00,
2013-09-05 20:31:00,52.7,46.4,29.62,NNW,338,0.0,0.0,79,0.00,CLR,SCT,0.00,WeatherDisplay:10.37,2013-09-06 04:31:00,
2013-09-05 20:36:00,52.7,46.4,29.62,NNW,338,0.0,0.0,79,0.00,CLR,SCT,0.00,WeatherDisplay:10.37,2013-09-06 04:36:00,
2013-09-05 20:41:00,52.5,46.2,29.62,NNW,338,0.0,0.0,79,0.00,CLR,SCT,0.00,WeatherDisplay:10.37,2013-09-06 04:41:00,
2013-09-05 20:46:00,52.3,46.4,29.59,NNW,338,0.0,0.0,80,0.00,CLR,SCT,0.00,WeatherDisplay:10.37,2013-09-06 04:46:00,
2013-09-05 20:51:00,52.2,45.8,29.59,NNW,338,0.0,0.0,79,0.00,CLR,SCT,0.00,WeatherDisplay:10.37,2013-09-06 04:51:00,
2013-09-05 20:56:00,52.0,45.7,29.59,NNW,338,0.0,0.0,79,0.00,CLR,SCT,0.00,WeatherDisplay:10.37,2013-09-06 04:56:00,
2013-09-05 21:01:00,52.0,45.3,29.59,NNW,338,0.0,0.0,78,0.00,CLR,SCT,0.00,WeatherDisplay:10.37,2013-09-06 05:01:00,
2013-09-05 21:06:00,52.0,44.6,29.59,NNW,338,0.0,0.0,76,0.00,CLR,SCT,0.00,WeatherDisplay:10.37,2013-09-06 05:06:00,
2013-09-05 21:11:00,52.0,44.6,29.59,NNW,338,0.0,0.0,76,0.00,CLR,SCT,0.00,WeatherDisplay:10.37,2013-09-06 05:11:00,
2013-09-05 21:16:00,52.0,44.6,29.59,NNW,338,0.0,0.0,76,0.00,CLR,SCT,0.00,WeatherDisplay:10.37,2013-09-06 05:16:00,
2013-09-05 21:21:00,52.0,44.6,29.59,NNW,338,0.0,0.0,76,0.00,CLR,SCT,0.00,WeatherDisplay:10.37,2013-09-06 05:21:00,
2013-09-05 21:26:00,52.0,45.0,29.59,NNW,338,0.0,0.0,77,0.00,CLR,SCT,0.00,WeatherDisplay:10.37,2013-09-06 05:26:00,
2013-09-05 21:31:00,51.8,45.2,29.62,NNW,338,0.0,0.0,78,0.00,CLR,SCT,0.00,WeatherDisplay:10.37,2013-09-06 05:31:00,
2013-09-05 21:36:00,51.8,45.2,29.62,NNW,338,0.0,0.0,78,0.00,CLR,SCT,0.00,WeatherDisplay:10.37,2013-09-06 05:36:00,
2013-09-05 21:41:00,51.6,45.3,29.62,NNW,338,0.0,0.0,79,0.00,CLR,SCT,0.00,WeatherDisplay:10.37,2013-09-06 05:41:00,
2013-09-05 21:46:00,51.6,45.7,29.62,NNW,338,0.0,0.0,80,0.00,CLR,SCT,0.00,WeatherDisplay:10.37,2013-09-06 05:46:00,
2013-09-05 21:51:00,51.4,45.8,29.62,NNW,338,0.0,0.0,81,0.00,CLR,SCT,0.00,WeatherDisplay:10.37,2013-09-06 05:51:00,
2013-09-05 21:56:00,51.4,45.8,29.62,NNW,338,0.0,0.0,81,0.00,CLR,SCT,0.00,WeatherDisplay:10.37,2013-09-06 05:56:00,
2013-09-05 22:01:00,51.4,45.8,29.62,NNW,338,0.0,0.0,81,0.00,CLR,SCT,0.00,WeatherDisplay:10.37,2013-09-06 06:01:00,
2013-09-05 22:06:00,51.4,45.5,29.62,NNW,338,2.3,0.0,80,0.00,CLR,SCT,0.00,WeatherDisplay:10.37,2013-09-06 06:06:00,
2013-09-05 22:11:00,51.6,45.7,29.62,NNW,338,3.5,0.0,80,0.00,CLR,SCT,0.00,WeatherDisplay:10.37,2013-09-06 06:11:00,
2013-09-05 22:16:00,51.4,45.5,29.62,NNW,338,0.0,0.0,80,0.00,CLR,SCT,0.00,WeatherDisplay:10.37,2013-09-06 06:16:00,
2013-09-05 22:21:00,51.3,45.3,29.62,NNW,338,0.0,0.0,80,0.00,CLR,SCT,0.00,WeatherDisplay:10.37,2013-09-06 06:21:00,
2013-09-05 22:26:00,51.1,45.1,29.62,NNW,338,0.0,0.0,80,0.00,CLR,SCT,0.00,WeatherDisplay:10.37,2013-09-06 06:26:00,
2013-09-05 22:31:00,51.3,45.3,29.62,NNW,338,3.5,0.0,80,0.00,CLR,SCT,0.00,WeatherDisplay:10.37,2013-09-06 06:31:00,
2013-09-05 22:36:00,51.3,45.0,29.62,NNW,338,0.0,0.0,79,0.00,CLR,SCT,0.00,WeatherDisplay:10.37,2013-09-06 06:36:00,
2013-09-05 22:42:00,51.3,45.0,29.62,NNE,22,4.6,4.6,79,0.00,CLR,SCT,0.00,WeatherDisplay:10.37,2013-09-06 06:42:00,
2013-09-05 22:47:00,51.4,44.8,29.62,ENE,68,0.0,0.0,78,0.00,CLR,SCT,0.00,WeatherDisplay:10.37,2013-09-06 06:47:00,
2013-09-05 22:52:00,51.1,44.8,29.62,ENE,68,0.0,0.0,79,0.00,CLR,SCT,0.00,WeatherDisplay:10.37,2013-09-06 06:52:00,
2013-09-05 22:57:00,50.9,44.9,29.62,ENE,68,0.0,0.0,80,0.00,CLR,SCT,0.00,WeatherDisplay:10.37,2013-09-06 06:57:00,
2013-09-05 23:02:00,50.9,45.3,29.62,NE,45,0.0,0.0,81,0.00,CLR,SCT,0.00,WeatherDisplay:10.37,2013-09-06 07:02:00,
2013-09-05 23:07:00,50.9,45.3,29.62,NE,45,0.0,0.0,81,0.00,CLR,SCT,0.00,WeatherDisplay:10.37,2013-09-06 07:07:00,
2013-09-05 23:12:00,50.9,45.9,29.62,ENE,68,5.8,5.8,83,0.00,CLR,SCT,0.00,WeatherDisplay:10.37,2013-09-06 07:12:00,
2013-09-05 23:17:00,50.9,46.2,29.62,ENE,68,3.5,0.0,84,0.00,CLR,SCT,0.00,WeatherDisplay:10.37,2013-09-06 07:17:00,
2013-09-05 23:22:00,50.7,46.1,29.62,ENE,68,4.6,0.0,84,0.00,CLR,SCT,0.00,WeatherDisplay:10.37,2013-09-06 07:22:00,
2013-09-05 23:27:00,50.9,46.6,29.62,ENE,68,3.6,0.0,85,0.00,CLR,SCT,0.00,WeatherDisplay:10.37,2013-09-06 07:27:00,
2013-09-05 23:32:00,50.7,46.7,29.62,ENE,68,0.0,0.0,86,0.00,CLR,SCT,0.00,WeatherDisplay:10.37,2013-09-06 07:32:00,
2013-09-05 23:37:00,50.7,46.7,29.62,ENE,68,2.6,0.0,86,0.00,CLR,SCT,0.00,WeatherDisplay:10.37,2013-09-06 07:37:00,
2013-09-05 23:42:00,50.7,47.0,29.62,ENE,68,4.0,0.0,87,0.00,CLR,SCT,0.00,WeatherDisplay:10.37,2013-09-06 07:42:00,
2013-09-05 23:47:00,50.7,47.3,29.62,ENE,68,0.0,0.0,88,0.00,CLR,SCT,0.00,WeatherDisplay:10.37,2013-09-06 07:47:00,
2013-09-05 23:52:00,50.9,47.5,29.62,ENE,68,3.5,3.5,88,0.00,CLR,SCT,0.00,WeatherDisplay:10.37,2013-09-06 07:52:00,
2013-09-05 23:57:00,50.9,47.8,29.62,East,90,4.0,0.0,89,0.00,CLR,SCT,0.00,WeatherDisplay:10.37,2013-09-06 07:57:00,